createdAt,value
2023-06-30T00:00:01.016Z,79.5
2023-06-30T00:01:01.795Z,79.5
2023-06-30T00:02:01.018Z,79.5
2023-06-30T00:03:01.485Z,79.5
2023-06-30T00:04:01.448Z,79.5
2023-06-30T00:05:00.982Z,79.5
2023-06-30T00:06:00.958Z,79.5
2023-06-30T00:07:01.835Z,79.5
2023-06-30T00:08:01.288Z,79.5
2023-06-30T00:09:01.374Z,79.5
2023-06-30T00:10:01.334Z,79.5
2023-06-30T00:11:01.344Z,79.5
2023-06-30T00:12:01.423Z,79.3
2023-06-30T00:13:01.317Z,79.3
2023-06-30T00:14:01.000Z,79.3
2023-06-30T00:15:02.182Z,79.3
2023-06-30T00:16:01.063Z,79.2
2023-06-30T00:17:00.991Z,79.2
2023-06-30T00:18:01.065Z,79.2
2023-06-30T00:19:01.009Z,79.2
2023-06-30T00:20:01.198Z,79.2
2023-06-30T00:21:01.069Z,79.2
2023-06-30T00:22:00.978Z,79.0
2023-06-30T00:23:01.203Z,79.0
2023-06-30T00:24:01.288Z,79.0
2023-06-30T00:25:00.987Z,78.8
2023-06-30T00:26:01.305Z,78.8
2023-06-30T00:27:01.315Z,78.8
2023-06-30T00:28:00.964Z,78.8
2023-06-30T00:29:01.007Z,78.8
2023-06-30T00:30:01.705Z,78.8
2023-06-30T00:31:01.079Z,78.8
2023-06-30T00:32:01.296Z,78.8
2023-06-30T00:33:01.037Z,78.8
2023-06-30T00:34:01.663Z,78.6
2023-06-30T00:35:01.291Z,78.6
2023-06-30T00:36:01.393Z,78.6
2023-06-30T00:37:01.301Z,78.6
2023-06-30T00:38:01.296Z,78.4
2023-06-30T00:39:01.302Z,78.4
2023-06-30T00:40:01.317Z,78.4
2023-06-30T00:41:00.997Z,78.4
2023-06-30T00:42:01.044Z,78.4
2023-06-30T00:43:01.344Z,78.3
2023-06-30T00:44:01.292Z,78.3
2023-06-30T00:45:01.625Z,78.3
2023-06-30T00:46:02.144Z,78.3
2023-06-30T00:47:01.105Z,78.1
2023-06-30T00:48:01.886Z,78.1
2023-06-30T00:49:01.795Z,78.1
2023-06-30T00:50:01.995Z,78.1
2023-06-30T00:51:01.022Z,78.1
2023-06-30T00:52:01.510Z,77.9
2023-06-30T00:53:01.703Z,77.9
2023-06-30T00:54:01.407Z,77.9
2023-06-30T00:55:01.446Z,77.9
2023-06-30T00:56:01.741Z,77.9
2023-06-30T00:57:05.824Z,77.7
2023-06-30T00:58:00.988Z,77.7
2023-06-30T00:59:00.968Z,77.7
2023-06-30T01:00:00.972Z,77.7
2023-06-30T01:01:09.090Z,77.5
2023-06-30T01:02:07.516Z,77.4
2023-06-30T01:03:07.737Z,77.4
2023-06-30T01:04:09.395Z,77.2
2023-06-30T01:05:04.568Z,77.0
2023-06-30T01:06:11.583Z,77.0
2023-06-30T01:07:09.056Z,77.0
2023-06-30T01:08:08.061Z,76.8
2023-06-30T01:09:03.874Z,76.8
2023-06-30T01:10:08.594Z,76.8
2023-06-30T01:11:01.775Z,76.6
2023-06-30T01:12:01.586Z,76.5
2023-06-30T01:13:02.506Z,76.5
2023-06-30T01:14:03.294Z,76.3
2023-06-30T01:15:02.444Z,76.3
2023-06-30T01:16:02.585Z,76.1
2023-06-30T01:17:02.630Z,76.1
2023-06-30T01:18:02.596Z,76.1
2023-06-30T01:19:05.614Z,75.9
2023-06-30T01:20:04.129Z,75.9
2023-06-30T01:21:02.207Z,75.7
2023-06-30T01:22:10.968Z,75.7
2023-06-30T01:23:07.918Z,75.7
2023-06-30T01:24:07.041Z,75.6
2023-06-30T01:25:07.062Z,75.7
2023-06-30T01:26:01.993Z,75.6
2023-06-30T01:27:01.759Z,75.6
2023-06-30T01:28:03.127Z,75.4
2023-06-30T01:29:02.649Z,75.4
2023-06-30T01:30:01.793Z,75.4
2023-06-30T01:31:01.981Z,75.4
2023-06-30T01:32:01.413Z,75.2
2023-06-30T01:33:01.417Z,75.2
2023-06-30T01:34:02.147Z,75.2
2023-06-30T01:35:01.324Z,75.2
2023-06-30T01:36:01.316Z,75.0
2023-06-30T01:37:01.385Z,74.8
2023-06-30T01:38:01.010Z,74.8
2023-06-30T01:39:01.016Z,74.8
2023-06-30T01:40:01.769Z,74.8
2023-06-30T01:41:01.933Z,74.8
2023-06-30T01:42:01.435Z,74.7
2023-06-30T01:43:01.902Z,74.7
2023-06-30T01:44:02.611Z,74.7
2023-06-30T01:45:01.452Z,74.7
2023-06-30T01:46:01.674Z,74.7
2023-06-30T01:47:02.181Z,74.5
2023-06-30T01:48:01.539Z,74.5
2023-06-30T01:49:01.406Z,74.5
2023-06-30T01:50:01.096Z,74.3
2023-06-30T01:51:01.943Z,74.3
2023-06-30T01:52:01.809Z,74.3
2023-06-30T01:53:01.313Z,74.1
2023-06-30T01:54:01.325Z,74.1
2023-06-30T01:55:02.634Z,74.1
2023-06-30T01:56:01.307Z,74.1
2023-06-30T01:57:01.290Z,74.1
2023-06-30T01:58:01.323Z,74.1
2023-06-30T01:59:01.329Z,73.9
2023-06-30T02:00:01.593Z,73.9
2023-06-30T02:01:01.454Z,73.9
2023-06-30T02:02:01.377Z,73.8
2023-06-30T02:03:01.050Z,73.8
2023-06-30T02:04:01.087Z,73.8
2023-06-30T02:05:01.004Z,73.6
2023-06-30T02:06:01.005Z,73.6
2023-06-30T02:07:01.098Z,73.6
2023-06-30T02:08:00.984Z,73.6
2023-06-30T02:09:01.393Z,73.6
2023-06-30T02:10:01.824Z,73.6
2023-06-30T02:11:00.980Z,73.6
2023-06-30T02:12:01.391Z,73.6
2023-06-30T02:13:01.416Z,73.6
2023-06-30T02:14:01.293Z,73.6
2023-06-30T02:15:01.381Z,73.4
2023-06-30T02:16:01.403Z,73.4
2023-06-30T02:17:01.344Z,73.2
2023-06-30T02:18:01.337Z,73.2
2023-06-30T02:19:01.293Z,73.2
2023-06-30T02:20:02.625Z,73.2
2023-06-30T02:21:00.967Z,73.2
2023-06-30T02:22:00.988Z,73.2
2023-06-30T02:23:00.984Z,73.0
2023-06-30T02:24:01.672Z,73.0
2023-06-30T02:25:01.380Z,73.0
2023-06-30T02:26:01.339Z,73.0
2023-06-30T02:27:00.992Z,73.0
2023-06-30T02:28:00.985Z,73.0
2023-06-30T02:29:01.297Z,73.0
2023-06-30T02:30:00.994Z,73.0
2023-06-30T02:31:01.094Z,73.0
2023-06-30T02:32:01.182Z,73.0
2023-06-30T02:33:01.270Z,73.0
2023-06-30T02:34:01.290Z,73.0
2023-06-30T02:35:01.390Z,73.0
2023-06-30T02:36:01.946Z,73.2
2023-06-30T02:37:01.367Z,73.2
2023-06-30T02:38:01.487Z,73.2
2023-06-30T02:39:00.975Z,73.2
2023-06-30T02:40:01.326Z,73.2
2023-06-30T02:41:01.342Z,73.2
2023-06-30T02:42:01.000Z,73.2
2023-06-30T02:43:01.301Z,73.2
2023-06-30T02:44:01.323Z,73.4
2023-06-30T02:45:00.982Z,73.4
2023-06-30T02:46:01.710Z,73.4
2023-06-30T02:47:01.020Z,73.4
2023-06-30T02:48:01.324Z,73.4
2023-06-30T02:49:01.332Z,73.4
2023-06-30T02:50:01.062Z,73.4
2023-06-30T02:51:00.994Z,73.4
2023-06-30T02:52:01.272Z,73.4
2023-06-30T02:53:01.363Z,73.4
2023-06-30T02:54:00.986Z,73.2
2023-06-30T02:55:00.996Z,73.4
2023-06-30T02:56:01.361Z,73.4
2023-06-30T02:57:01.619Z,73.4
2023-06-30T02:58:01.308Z,73.4
2023-06-30T02:59:00.984Z,73.4
2023-06-30T03:00:01.496Z,73.4
2023-06-30T03:01:01.138Z,73.4
2023-06-30T03:02:01.084Z,73.6
2023-06-30T03:03:01.050Z,73.6
2023-06-30T03:04:01.449Z,73.6
2023-06-30T03:05:01.406Z,73.6
2023-06-30T03:06:01.041Z,73.6
2023-06-30T03:07:01.325Z,73.6
2023-06-30T03:08:03.338Z,73.8
2023-06-30T03:09:01.295Z,73.6
2023-06-30T03:10:01.717Z,73.8
2023-06-30T03:11:01.007Z,73.8
2023-06-30T03:12:01.023Z,73.8
2023-06-30T03:13:01.422Z,73.8
2023-06-30T03:14:01.325Z,73.9
2023-06-30T03:15:01.386Z,73.9
2023-06-30T03:16:01.277Z,73.9
2023-06-30T03:17:00.991Z,74.1
2023-06-30T03:18:01.027Z,74.3
2023-06-30T03:19:01.202Z,74.3
2023-06-30T03:20:01.016Z,74.3
2023-06-30T03:21:01.295Z,74.3
2023-06-30T03:22:00.969Z,74.3
2023-06-30T03:23:01.021Z,74.3
2023-06-30T03:24:01.331Z,74.3
2023-06-30T03:25:00.988Z,74.3
2023-06-30T03:26:00.969Z,74.3
2023-06-30T03:27:01.359Z,74.5
2023-06-30T03:28:00.976Z,74.3
2023-06-30T03:29:01.333Z,74.3
2023-06-30T03:30:01.663Z,74.3
2023-06-30T03:31:01.081Z,74.3
2023-06-30T03:32:00.970Z,74.3
2023-06-30T03:33:01.367Z,74.3
2023-06-30T03:34:01.313Z,74.3
2023-06-30T03:35:00.986Z,74.1
2023-06-30T03:36:01.286Z,74.1
2023-06-30T03:37:00.988Z,74.1
2023-06-30T03:38:00.994Z,74.1
2023-06-30T03:39:00.984Z,74.1
2023-06-30T03:40:01.282Z,74.1
2023-06-30T03:41:01.678Z,74.1
2023-06-30T03:42:00.966Z,74.1
2023-06-30T03:43:00.999Z,74.1
2023-06-30T03:44:01.060Z,74.1
2023-06-30T03:45:01.386Z,74.1
2023-06-30T03:46:01.428Z,73.9
2023-06-30T03:47:01.364Z,73.9
2023-06-30T03:48:01.014Z,73.9
2023-06-30T03:49:01.283Z,73.9
2023-06-30T03:50:01.326Z,73.9
2023-06-30T03:51:01.274Z,73.8
2023-06-30T03:52:01.300Z,73.8
2023-06-30T03:53:00.986Z,73.8
2023-06-30T03:54:01.291Z,73.8
2023-06-30T03:55:01.293Z,73.8
2023-06-30T03:56:01.002Z,73.8
2023-06-30T03:57:01.318Z,73.6
2023-06-30T03:58:02.005Z,73.6
2023-06-30T03:59:00.968Z,73.6
2023-06-30T04:00:01.003Z,73.4
2023-06-30T04:01:01.502Z,73.4
2023-06-30T04:02:01.286Z,73.4
2023-06-30T04:03:01.871Z,73.4
2023-06-30T04:04:01.515Z,73.4
2023-06-30T04:05:01.060Z,73.4
2023-06-30T04:06:01.275Z,73.4
2023-06-30T04:07:01.122Z,73.4
2023-06-30T04:08:01.051Z,73.2
2023-06-30T04:09:01.271Z,73.2
2023-06-30T04:10:01.318Z,73.2
2023-06-30T04:11:01.305Z,73.2
2023-06-30T04:12:01.020Z,73.0
2023-06-30T04:13:05.055Z,73.0
2023-06-30T04:14:01.570Z,73.0
2023-06-30T04:15:01.033Z,73.0
2023-06-30T04:16:01.329Z,72.9
2023-06-30T04:17:00.985Z,72.9
2023-06-30T04:18:01.451Z,72.9
2023-06-30T04:19:00.989Z,72.7
2023-06-30T04:20:01.000Z,72.7
2023-06-30T04:21:01.049Z,72.5
2023-06-30T04:22:03.916Z,72.5
2023-06-30T04:23:01.266Z,72.5
2023-06-30T04:24:01.302Z,72.5
2023-06-30T04:25:01.207Z,72.3
2023-06-30T04:26:01.298Z,72.3
2023-06-30T04:27:01.452Z,72.3
2023-06-30T04:28:01.018Z,72.3
2023-06-30T04:29:01.368Z,72.1
2023-06-30T04:30:01.013Z,72.1
2023-06-30T04:31:01.023Z,72.1
2023-06-30T04:32:01.401Z,72.0
2023-06-30T04:33:01.037Z,72.0
2023-06-30T04:34:01.305Z,72.0
2023-06-30T04:35:01.522Z,72.0
2023-06-30T04:36:01.708Z,72.0
2023-06-30T04:37:01.305Z,71.8
2023-06-30T04:38:00.979Z,71.8
2023-06-30T04:39:01.053Z,71.6
2023-06-30T04:40:01.065Z,71.6
2023-06-30T04:41:01.487Z,71.6
2023-06-30T04:42:01.279Z,71.6
2023-06-30T04:43:00.998Z,71.6
2023-06-30T04:44:01.324Z,71.6
2023-06-30T04:45:01.173Z,71.6
2023-06-30T04:46:01.033Z,71.6
2023-06-30T04:47:01.169Z,71.4
2023-06-30T04:48:01.330Z,71.4
2023-06-30T04:49:00.991Z,71.4
2023-06-30T04:50:01.054Z,71.4
2023-06-30T04:51:01.005Z,71.4
2023-06-30T04:52:00.991Z,71.4
2023-06-30T04:53:01.379Z,71.4
2023-06-30T04:54:01.044Z,71.4
2023-06-30T04:55:00.985Z,71.2
2023-06-30T04:56:00.999Z,71.2
2023-06-30T04:57:01.010Z,71.2
2023-06-30T04:58:01.300Z,71.1
2023-06-30T04:59:01.008Z,71.1
2023-06-30T05:00:01.053Z,71.1
2023-06-30T05:01:00.980Z,70.9
2023-06-30T05:02:01.063Z,70.9
2023-06-30T05:03:01.375Z,70.9
2023-06-30T05:04:01.225Z,70.7
2023-06-30T05:05:01.320Z,70.9
2023-06-30T05:06:01.026Z,70.9
2023-06-30T05:07:01.013Z,70.9
2023-06-30T05:08:01.003Z,70.9
2023-06-30T05:09:01.090Z,70.9
2023-06-30T05:10:01.325Z,70.7
2023-06-30T05:11:01.338Z,70.7
2023-06-30T05:12:01.347Z,70.7
2023-06-30T05:13:00.985Z,70.5
2023-06-30T05:14:01.025Z,70.7
2023-06-30T05:15:01.001Z,70.5
2023-06-30T05:16:01.504Z,70.7
2023-06-30T05:17:01.133Z,70.7
2023-06-30T05:18:01.271Z,70.7
2023-06-30T05:19:01.449Z,70.7
2023-06-30T05:20:01.295Z,70.7
2023-06-30T05:21:00.996Z,70.5
2023-06-30T05:22:01.317Z,70.5
2023-06-30T05:23:01.433Z,70.5
2023-06-30T05:24:00.991Z,70.5
2023-06-30T05:25:01.464Z,70.5
2023-06-30T05:26:01.147Z,70.5
2023-06-30T05:27:01.860Z,70.3
2023-06-30T05:28:01.396Z,70.3
2023-06-30T05:29:05.206Z,70.3
2023-06-30T05:30:00.998Z,70.3
2023-06-30T05:31:01.251Z,70.3
2023-06-30T05:32:01.046Z,70.2
2023-06-30T05:33:01.066Z,70.2
2023-06-30T05:34:01.354Z,70.2
2023-06-30T05:35:01.027Z,70.0
2023-06-30T05:36:01.305Z,70.0
2023-06-30T05:37:00.974Z,70.0
2023-06-30T05:38:01.387Z,70.0
2023-06-30T05:39:00.990Z,70.0
2023-06-30T05:40:01.396Z,70.0
2023-06-30T05:41:01.019Z,70.0
2023-06-30T05:42:01.534Z,70.0
2023-06-30T05:43:00.971Z,70.0
2023-06-30T05:44:01.361Z,70.0
2023-06-30T05:45:01.351Z,70.0
2023-06-30T05:46:01.360Z,70.0
2023-06-30T05:47:01.610Z,69.8
2023-06-30T05:48:01.427Z,69.8
2023-06-30T05:49:01.289Z,69.8
2023-06-30T05:50:00.990Z,69.8
2023-06-30T05:51:00.980Z,69.8
2023-06-30T05:52:01.288Z,69.8
2023-06-30T05:53:01.323Z,69.8
2023-06-30T05:54:01.862Z,69.8
2023-06-30T05:55:00.968Z,69.8
2023-06-30T05:56:00.991Z,69.6
2023-06-30T05:57:00.983Z,69.6
2023-06-30T05:58:00.990Z,69.4
2023-06-30T05:59:00.977Z,69.4
2023-06-30T06:00:01.374Z,69.4
2023-06-30T06:01:01.284Z,69.4
2023-06-30T06:02:00.982Z,69.4
2023-06-30T06:03:01.089Z,69.4
2023-06-30T06:04:01.645Z,69.4
2023-06-30T06:05:01.208Z,69.4
2023-06-30T06:06:01.071Z,69.4
2023-06-30T06:07:03.243Z,69.4
2023-06-30T06:08:01.318Z,69.4
2023-06-30T06:09:01.704Z,69.4
2023-06-30T06:10:01.006Z,69.3
2023-06-30T06:11:01.305Z,69.3
2023-06-30T06:12:02.300Z,69.3
2023-06-30T06:13:01.041Z,69.3
2023-06-30T06:14:01.315Z,69.3
2023-06-30T06:15:01.194Z,69.3
2023-06-30T06:16:02.191Z,69.3
2023-06-30T06:17:01.557Z,69.3
2023-06-30T06:18:01.085Z,69.3
2023-06-30T06:19:00.980Z,69.1
2023-06-30T06:20:01.446Z,69.3
2023-06-30T06:21:02.491Z,69.3
2023-06-30T06:22:01.001Z,69.3
2023-06-30T06:23:00.991Z,69.1
2023-06-30T06:24:00.982Z,69.1
2023-06-30T06:25:01.291Z,69.1
2023-06-30T06:26:01.927Z,69.1
2023-06-30T06:27:00.978Z,69.1
2023-06-30T06:28:00.992Z,69.1
2023-06-30T06:29:01.006Z,69.1
2023-06-30T06:30:01.009Z,69.1
2023-06-30T06:31:00.981Z,69.1
2023-06-30T06:32:00.998Z,69.1
2023-06-30T06:33:01.465Z,69.1
2023-06-30T06:34:00.975Z,69.1
2023-06-30T06:35:01.048Z,69.1
2023-06-30T06:36:01.071Z,69.1
2023-06-30T06:37:01.808Z,69.1
2023-06-30T06:38:01.338Z,69.1
2023-06-30T06:39:03.684Z,68.9
2023-06-30T06:40:00.990Z,68.9
2023-06-30T06:41:01.324Z,68.9
2023-06-30T06:42:00.986Z,68.9
2023-06-30T06:43:01.027Z,68.9
2023-06-30T06:44:01.323Z,68.9
2023-06-30T06:45:01.018Z,68.9
2023-06-30T06:46:01.038Z,68.9
2023-06-30T06:47:20.482Z,68.9
2023-06-30T06:48:19.076Z,68.9
2023-06-30T06:49:01.028Z,68.9
2023-06-30T06:50:00.997Z,68.9
2023-06-30T06:51:02.338Z,68.9
2023-06-30T06:52:01.289Z,68.9
2023-06-30T06:53:01.044Z,68.9
2023-06-30T06:54:01.381Z,68.9
2023-06-30T06:55:00.996Z,68.7
2023-06-30T06:56:02.388Z,68.7
2023-06-30T06:57:01.461Z,68.7
2023-06-30T06:58:01.363Z,68.7
2023-06-30T06:59:01.270Z,68.7
2023-06-30T07:00:03.064Z,68.7
2023-06-30T07:01:01.611Z,68.7
2023-06-30T07:02:00.982Z,68.7
2023-06-30T07:03:01.004Z,68.7
2023-06-30T07:04:01.115Z,68.7
2023-06-30T07:05:00.988Z,68.7
2023-06-30T07:06:00.981Z,68.5
2023-06-30T07:07:01.297Z,68.5
2023-06-30T07:08:01.382Z,68.5
2023-06-30T07:09:01.008Z,68.5
2023-06-30T07:10:01.770Z,68.5
2023-06-30T07:11:01.383Z,68.7
2023-06-30T07:12:00.981Z,68.5
2023-06-30T07:13:01.681Z,68.5
2023-06-30T07:14:00.976Z,68.5
2023-06-30T07:15:01.000Z,68.5
2023-06-30T07:16:01.392Z,68.5
2023-06-30T07:17:00.970Z,68.4
2023-06-30T07:18:01.080Z,68.4
2023-06-30T07:19:01.067Z,68.4
2023-06-30T07:20:01.304Z,68.4
2023-06-30T07:21:01.574Z,68.4
2023-06-30T07:22:01.007Z,68.4
2023-06-30T07:23:01.312Z,68.5
2023-06-30T07:24:01.286Z,68.4
2023-06-30T07:25:01.366Z,68.4
2023-06-30T07:26:00.976Z,68.4
2023-06-30T07:27:01.028Z,68.4
2023-06-30T07:28:03.098Z,68.4
2023-06-30T07:29:00.982Z,68.4
2023-06-30T07:30:01.318Z,68.4
2023-06-30T07:31:01.349Z,68.4
2023-06-30T07:32:01.283Z,68.4
2023-06-30T07:33:01.001Z,68.4
2023-06-30T07:34:01.473Z,68.4
2023-06-30T07:35:01.190Z,68.2
2023-06-30T07:36:01.005Z,68.2
2023-06-30T07:37:01.303Z,68.2
2023-06-30T07:38:01.324Z,68.2
2023-06-30T07:39:00.985Z,68.2
2023-06-30T07:40:12.168Z,68.2
2023-06-30T07:41:01.029Z,68.2
2023-06-30T07:42:01.013Z,68.2
2023-06-30T07:43:01.281Z,68.2
2023-06-30T07:44:01.520Z,68.2
2023-06-30T07:45:01.048Z,68.2
2023-06-30T07:46:01.003Z,68.2
2023-06-30T07:47:01.405Z,68.2
2023-06-30T07:48:01.039Z,68.0
2023-06-30T07:49:01.296Z,68.0
2023-06-30T07:50:01.015Z,68.0
2023-06-30T07:51:08.995Z,68.0
2023-06-30T07:52:00.974Z,68.0
2023-06-30T07:53:01.070Z,68.0
2023-06-30T07:54:01.252Z,68.0
2023-06-30T07:55:00.984Z,68.0
2023-06-30T07:56:01.034Z,68.0
2023-06-30T07:57:01.058Z,68.0
2023-06-30T07:58:00.992Z,67.8
2023-06-30T07:59:00.994Z,67.8
2023-06-30T08:00:01.352Z,67.8
2023-06-30T08:01:01.493Z,67.8
2023-06-30T08:02:00.985Z,67.8
2023-06-30T08:03:01.476Z,67.8
2023-06-30T08:04:01.109Z,67.8
2023-06-30T08:05:01.385Z,67.8
2023-06-30T08:06:01.655Z,67.8
2023-06-30T08:07:01.049Z,67.8
2023-06-30T08:08:01.087Z,67.8
2023-06-30T08:09:00.996Z,67.8
2023-06-30T08:10:01.078Z,67.8
2023-06-30T08:11:00.986Z,67.6
2023-06-30T08:12:01.000Z,67.6
2023-06-30T08:13:00.973Z,67.6
2023-06-30T08:14:01.287Z,67.6
2023-06-30T08:15:01.330Z,67.6
2023-06-30T08:16:01.239Z,67.6
2023-06-30T08:17:01.699Z,67.6
2023-06-30T08:18:01.422Z,67.6
2023-06-30T08:19:02.051Z,67.6
2023-06-30T08:20:01.374Z,67.6
2023-06-30T08:21:01.648Z,67.6
2023-06-30T08:22:01.287Z,67.6
2023-06-30T08:23:00.996Z,67.5
2023-06-30T08:24:01.293Z,67.5
2023-06-30T08:25:01.006Z,67.5
2023-06-30T08:26:01.326Z,67.5
2023-06-30T08:27:01.650Z,67.5
2023-06-30T08:28:00.974Z,67.5
2023-06-30T08:29:01.333Z,67.5
2023-06-30T08:30:01.288Z,67.5
2023-06-30T08:31:01.020Z,67.5
2023-06-30T08:32:01.596Z,67.5
2023-06-30T08:33:01.318Z,67.5
2023-06-30T08:34:00.988Z,67.5
2023-06-30T08:35:01.298Z,67.5
2023-06-30T08:36:01.526Z,67.3
2023-06-30T08:37:00.976Z,67.3
2023-06-30T08:38:01.279Z,67.3
2023-06-30T08:39:01.105Z,67.3
2023-06-30T08:40:01.521Z,67.3
2023-06-30T08:41:01.751Z,67.3
2023-06-30T08:42:04.201Z,67.3
2023-06-30T08:43:09.761Z,67.3
2023-06-30T08:44:01.257Z,67.3
2023-06-30T08:45:03.958Z,67.3
2023-06-30T08:46:03.952Z,67.1
2023-06-30T08:47:01.760Z,67.1
2023-06-30T08:48:04.341Z,67.1
2023-06-30T08:49:02.040Z,67.1
2023-06-30T08:50:01.955Z,67.1
2023-06-30T08:51:02.344Z,67.1
2023-06-30T08:52:01.346Z,67.1
2023-06-30T08:53:01.776Z,67.1
2023-06-30T08:54:01.420Z,67.1
2023-06-30T08:55:02.570Z,67.1
2023-06-30T08:56:03.448Z,67.1
2023-06-30T08:57:01.324Z,67.1
2023-06-30T08:58:09.672Z,67.1
2023-06-30T08:59:00.981Z,67.1
2023-06-30T09:00:02.531Z,67.1
2023-06-30T09:01:01.548Z,67.1
2023-06-30T09:02:01.509Z,67.1
2023-06-30T09:03:02.066Z,67.1
2023-06-30T09:04:02.049Z,67.1
2023-06-30T09:05:02.145Z,67.1
2023-06-30T09:06:01.627Z,67.1
2023-06-30T09:07:02.976Z,67.1
2023-06-30T09:08:07.237Z,67.1
2023-06-30T09:09:07.927Z,67.1
2023-06-30T09:10:03.552Z,66.9
2023-06-30T09:11:03.674Z,66.9
2023-06-30T09:12:01.352Z,66.9
2023-06-30T09:13:02.708Z,66.9
2023-06-30T09:14:02.166Z,66.9
2023-06-30T09:15:02.039Z,66.9
2023-06-30T09:16:02.758Z,66.9
2023-06-30T09:17:01.703Z,66.9
2023-06-30T09:18:01.601Z,67.1
2023-06-30T09:19:00.978Z,66.9
2023-06-30T09:20:01.317Z,66.9
2023-06-30T09:21:04.060Z,67.1
2023-06-30T09:22:51.896Z,67.1
2023-06-30T09:23:02.978Z,67.1
2023-06-30T09:24:00.987Z,67.1
2023-06-30T09:25:01.077Z,67.1
2023-06-30T09:26:00.993Z,67.1
2023-06-30T09:27:01.340Z,66.9
2023-06-30T09:28:07.618Z,66.9
2023-06-30T09:29:01.664Z,67.1
2023-06-30T09:30:01.022Z,67.1
2023-06-30T09:31:01.003Z,67.1
2023-06-30T09:32:01.629Z,67.1
2023-06-30T09:33:02.049Z,67.1
2023-06-30T09:34:10.594Z,67.1
2023-06-30T09:35:05.976Z,66.9
2023-06-30T09:36:02.982Z,67.1
2023-06-30T09:37:00.984Z,67.1
2023-06-30T09:38:00.984Z,66.9
2023-06-30T09:39:01.313Z,66.9
2023-06-30T09:40:00.968Z,67.1
2023-06-30T09:41:05.071Z,67.1
2023-06-30T09:42:00.962Z,67.1
2023-06-30T09:43:00.992Z,67.1
2023-06-30T09:44:01.281Z,67.1
2023-06-30T09:45:01.410Z,67.1
2023-06-30T09:46:02.273Z,67.1
2023-06-30T09:47:00.996Z,67.3
2023-06-30T09:48:01.423Z,67.3
2023-06-30T09:49:01.026Z,67.5
2023-06-30T09:50:01.510Z,67.5
2023-06-30T09:51:01.075Z,67.6
2023-06-30T09:52:02.281Z,67.6
2023-06-30T09:53:01.806Z,67.6
2023-06-30T09:54:01.346Z,67.6
2023-06-30T09:55:08.251Z,67.6
2023-06-30T09:56:00.981Z,67.8
2023-06-30T09:57:02.918Z,67.8
2023-06-30T09:58:01.334Z,67.8
2023-06-30T09:59:00.988Z,67.8
2023-06-30T10:00:01.323Z,67.8
2023-06-30T10:01:01.010Z,67.8
2023-06-30T10:02:02.241Z,67.8
2023-06-30T10:03:02.545Z,68.0
2023-06-30T10:04:01.340Z,68.0
2023-06-30T10:05:01.300Z,68.0
2023-06-30T10:06:02.279Z,68.0
2023-06-30T10:07:01.737Z,68.0
2023-06-30T10:08:02.582Z,68.0
2023-06-30T10:09:02.189Z,68.0
2023-06-30T10:10:02.887Z,68.0
2023-06-30T10:11:02.133Z,68.0
2023-06-30T10:12:02.221Z,68.2
2023-06-30T10:13:02.680Z,68.2
2023-06-30T10:14:02.709Z,68.2
2023-06-30T10:15:02.901Z,68.2
2023-06-30T10:16:01.928Z,68.2
2023-06-30T10:17:04.357Z,68.2
2023-06-30T10:18:02.580Z,68.2
2023-06-30T10:19:02.168Z,68.2
2023-06-30T10:20:05.668Z,68.2
2023-06-30T10:21:01.947Z,68.2
2023-06-30T10:22:01.419Z,68.2
2023-06-30T10:23:02.425Z,68.4
2023-06-30T10:24:03.116Z,68.4
2023-06-30T10:25:02.216Z,68.4
2023-06-30T10:26:05.125Z,68.4
2023-06-30T10:27:02.032Z,68.4
2023-06-30T10:28:01.775Z,68.4
2023-06-30T10:29:01.791Z,68.5
2023-06-30T10:30:01.205Z,68.5
2023-06-30T10:31:02.281Z,68.7
2023-06-30T10:32:01.367Z,68.7
2023-06-30T10:33:01.458Z,68.7
2023-06-30T10:34:01.931Z,68.7
2023-06-30T10:35:02.064Z,68.7
2023-06-30T10:36:01.973Z,68.7
2023-06-30T10:37:01.884Z,68.5
2023-06-30T10:38:01.705Z,68.7
2023-06-30T10:39:01.690Z,68.9
2023-06-30T10:40:01.484Z,68.9
2023-06-30T10:41:12.311Z,68.9
2023-06-30T10:42:04.856Z,68.9
2023-06-30T10:43:01.000Z,69.3
2023-06-30T10:44:09.205Z,69.4
2023-06-30T10:45:01.439Z,69.4
2023-06-30T10:46:05.824Z,69.6
2023-06-30T10:47:01.473Z,69.6
2023-06-30T10:48:09.035Z,69.8
2023-06-30T10:49:05.498Z,69.8
2023-06-30T10:50:13.005Z,69.8
2023-06-30T10:51:04.189Z,70.0
2023-06-30T10:52:05.755Z,70.0
2023-06-30T10:53:06.752Z,70.2
2023-06-30T10:54:01.364Z,70.3
2023-06-30T10:55:05.473Z,70.3
2023-06-30T10:56:02.975Z,70.5
2023-06-30T10:57:07.823Z,70.7
2023-06-30T10:58:03.398Z,70.9
2023-06-30T10:59:01.537Z,71.1
2023-06-30T11:00:06.142Z,71.2
2023-06-30T11:01:03.344Z,71.4
2023-06-30T11:02:12.183Z,71.4
2023-06-30T11:03:05.284Z,71.6
2023-06-30T11:04:11.236Z,71.8
2023-06-30T11:05:18.848Z,72.0
2023-06-30T11:06:15.715Z,72.1
2023-06-30T11:07:03.351Z,72.3
2023-06-30T11:08:05.753Z,72.5
2023-06-30T11:09:02.901Z,72.5
2023-06-30T11:10:03.773Z,72.7
2023-06-30T11:11:02.545Z,72.9
2023-06-30T11:12:01.170Z,73.0
2023-06-30T11:13:02.489Z,73.2
2023-06-30T11:14:05.197Z,73.6
2023-06-30T11:15:02.433Z,73.6
2023-06-30T11:16:01.383Z,73.8
2023-06-30T11:17:02.714Z,73.8
2023-06-30T11:18:02.505Z,73.9
2023-06-30T11:19:01.472Z,73.9
2023-06-30T11:20:11.582Z,74.1
2023-06-30T11:21:02.996Z,74.1
2023-06-30T11:22:20.471Z,74.1
2023-06-30T11:23:02.587Z,74.3
2023-06-30T11:24:00.988Z,74.5
2023-06-30T11:25:04.150Z,74.5
2023-06-30T11:26:12.106Z,74.7
2023-06-30T11:27:02.023Z,74.5
2023-06-30T11:28:01.963Z,74.5
2023-06-30T11:29:02.732Z,74.7
2023-06-30T11:30:01.670Z,74.7
2023-06-30T11:31:01.329Z,74.5
2023-06-30T11:32:01.404Z,74.5
2023-06-30T11:33:01.065Z,74.5
2023-06-30T11:34:04.693Z,74.5
2023-06-30T11:35:01.503Z,74.5
2023-06-30T11:36:00.989Z,74.5
2023-06-30T11:37:04.388Z,74.5
2023-06-30T11:38:02.057Z,74.5
2023-06-30T11:39:00.981Z,74.5
2023-06-30T11:40:03.334Z,74.7
2023-06-30T11:41:00.984Z,74.7
2023-06-30T11:42:01.086Z,74.8
2023-06-30T11:43:01.000Z,74.8
2023-06-30T11:44:01.309Z,74.8
2023-06-30T11:45:01.301Z,75.0
2023-06-30T11:46:02.939Z,75.0
2023-06-30T11:47:01.043Z,75.2
2023-06-30T11:48:01.093Z,75.2
2023-06-30T11:49:01.340Z,75.0
2023-06-30T11:50:05.526Z,75.0
2023-06-30T11:51:01.035Z,75.0
2023-06-30T11:52:02.360Z,75.2
2023-06-30T11:53:01.609Z,75.2
2023-06-30T11:54:00.980Z,75.2
2023-06-30T11:55:05.354Z,75.4
2023-06-30T11:56:01.842Z,75.6
2023-06-30T11:57:01.000Z,75.6
2023-06-30T11:58:02.188Z,75.7
2023-06-30T11:59:01.032Z,75.7
2023-06-30T12:00:07.210Z,75.9
2023-06-30T12:01:01.022Z,75.9
2023-06-30T12:02:03.670Z,76.1
2023-06-30T12:03:02.775Z,76.1
2023-06-30T12:04:20.693Z,76.3
2023-06-30T12:05:01.475Z,76.5
2023-06-30T12:06:01.359Z,76.5
2023-06-30T12:07:02.433Z,76.5
2023-06-30T12:08:01.497Z,76.6
2023-06-30T12:09:02.776Z,76.6
2023-06-30T12:10:01.431Z,76.6
2023-06-30T12:11:04.029Z,76.8
2023-06-30T12:12:01.413Z,77.0
2023-06-30T12:13:01.029Z,77.0
2023-06-30T12:14:07.475Z,77.2
2023-06-30T12:15:03.953Z,77.5
2023-06-30T12:16:00.991Z,77.7
2023-06-30T12:17:03.681Z,77.7
2023-06-30T12:18:02.048Z,77.7
2023-06-30T12:19:05.596Z,77.9
2023-06-30T12:20:01.131Z,77.9
2023-06-30T12:21:01.056Z,78.1
2023-06-30T12:22:01.661Z,78.1
2023-06-30T12:23:01.681Z,78.1
2023-06-30T12:24:01.981Z,78.4
2023-06-30T12:25:02.589Z,78.6
2023-06-30T12:26:01.293Z,78.6
2023-06-30T12:27:04.858Z,78.8
2023-06-30T12:28:02.893Z,79.0
2023-06-30T12:29:02.668Z,79.0
2023-06-30T12:30:01.430Z,79.2
2023-06-30T12:31:01.404Z,79.2
2023-06-30T12:32:10.828Z,79.3
2023-06-30T12:33:02.271Z,79.5
2023-06-30T12:34:01.019Z,79.5
2023-06-30T12:35:01.352Z,79.7
2023-06-30T12:36:05.121Z,79.7
2023-06-30T12:37:01.511Z,79.7
2023-06-30T12:38:02.046Z,79.7
2023-06-30T12:39:01.300Z,79.9
2023-06-30T12:40:01.842Z,79.9
2023-06-30T12:41:01.043Z,79.9
2023-06-30T12:42:01.010Z,80.1
2023-06-30T12:43:01.316Z,79.9
2023-06-30T12:44:01.721Z,79.9
2023-06-30T12:45:01.086Z,79.9
2023-06-30T12:46:01.078Z,80.1
2023-06-30T12:47:02.064Z,80.1
2023-06-30T12:48:01.332Z,80.2
2023-06-30T12:49:01.301Z,80.4
2023-06-30T12:50:00.999Z,80.4
2023-06-30T12:51:01.557Z,80.6
2023-06-30T12:52:03.877Z,80.6
2023-06-30T12:53:01.122Z,80.8
2023-06-30T12:54:00.978Z,81.0
2023-06-30T12:55:01.628Z,81.0
2023-06-30T12:56:00.985Z,81.1
2023-06-30T12:57:01.009Z,81.3
2023-06-30T12:58:01.313Z,81.5
2023-06-30T12:59:00.976Z,81.7
2023-06-30T13:00:03.240Z,81.7
2023-06-30T13:01:03.108Z,81.5
2023-06-30T13:02:01.185Z,81.3
2023-06-30T13:03:01.046Z,81.3
2023-06-30T13:04:01.085Z,81.3
2023-06-30T13:05:01.631Z,81.3
2023-06-30T13:06:01.036Z,81.5
2023-06-30T13:07:01.394Z,81.5
2023-06-30T13:08:00.979Z,81.7
2023-06-30T13:09:01.279Z,81.5
2023-06-30T13:10:01.974Z,81.5
2023-06-30T13:11:01.380Z,81.5
2023-06-30T13:12:01.034Z,81.5
2023-06-30T13:13:01.244Z,81.9
2023-06-30T13:14:01.839Z,82.0
2023-06-30T13:15:01.293Z,82.2
2023-06-30T13:16:01.034Z,82.4
2023-06-30T13:17:01.314Z,82.8
2023-06-30T13:18:01.008Z,82.9